createdAt,value
2017-09-25T00:00:18.253Z,26.13
2017-09-25T00:02:45.809Z,25.73
2017-09-25T00:05:13.370Z,26.00
2017-09-25T00:07:40.934Z,27.03
2017-09-25T00:10:08.520Z,25.70
2017-09-25T00:12:36.843Z,27.20
2017-09-25T00:15:04.393Z,26.07
2017-09-25T00:17:31.950Z,26.73
2017-09-25T00:19:59.507Z,24.10
2017-09-25T00:22:27.087Z,26.63
2017-09-25T00:24:54.638Z,25.57
2017-09-25T00:27:22.190Z,24.60
2017-09-25T00:29:49.742Z,25.07
2017-09-25T00:32:17.297Z,25.13
2017-09-25T00:34:44.881Z,25.90
2017-09-25T00:37:12.434Z,24.43
2017-09-25T00:39:39.990Z,25.27
2017-09-25T00:42:07.543Z,25.50
2017-09-25T00:44:35.098Z,24.80
2017-09-25T00:47:02.681Z,25.20
2017-09-25T00:49:30.237Z,24.67
2017-09-25T00:51:57.797Z,24.80
2017-09-25T00:54:25.354Z,24.63
2017-09-25T00:56:52.905Z,24.80
2017-09-25T00:59:28.457Z,25.13
2017-09-25T01:02:08.023Z,25.60
2017-09-25T01:04:47.654Z,23.90
2017-09-25T01:07:15.210Z,23.50
2017-09-25T01:09:42.770Z,24.17
2017-09-25T01:12:10.326Z,25.10
2017-09-25T01:14:37.885Z,24.43
2017-09-25T01:17:05.475Z,24.97
2017-09-25T01:19:33.795Z,25.73
2017-09-25T01:22:01.353Z,25.00
2017-09-25T01:24:28.911Z,25.20
2017-09-25T01:26:56.470Z,25.23
2017-09-25T01:29:24.062Z,25.60
2017-09-25T01:31:51.619Z,25.70
2017-09-25T01:34:19.174Z,25.03
2017-09-25T01:36:46.726Z,25.47
2017-09-25T01:39:14.277Z,23.70
2017-09-25T01:41:41.858Z,27.03
2017-09-25T01:44:10.923Z,26.53
2017-09-25T01:46:38.486Z,25.73
2017-09-25T01:49:06.047Z,25.30
2017-09-25T01:51:33.601Z,25.50
2017-09-25T01:54:01.495Z,26.40
2017-09-25T01:56:29.054Z,24.70
2017-09-25T01:58:56.805Z,26.47
2017-09-25T02:01:24.362Z,27.50
2017-09-25T02:03:51.927Z,27.00
2017-09-25T02:06:19.515Z,26.50
2017-09-25T02:08:47.870Z,27.10
2017-09-25T02:11:15.423Z,29.27
2017-09-25T02:13:42.979Z,30.33
2017-09-25T02:16:10.540Z,32.97
2017-09-25T02:18:38.122Z,30.33
2017-09-25T02:21:05.682Z,32.33
2017-09-25T02:23:34.015Z,31.90
2017-09-25T02:26:01.574Z,31.83
2017-09-25T02:28:29.128Z,32.80
2017-09-25T02:30:56.709Z,31.30
2017-09-25T02:33:24.271Z,32.80
2017-09-25T02:35:51.831Z,32.80
2017-09-25T02:38:19.387Z,32.07
2017-09-25T02:40:46.941Z,31.27
2017-09-25T02:43:14.522Z,32.83
2017-09-25T02:45:42.078Z,32.07
2017-09-25T02:48:09.638Z,32.20
2017-09-25T02:50:37.194Z,32.20
2017-09-25T02:53:04.768Z,31.20
2017-09-25T02:55:33.129Z,33.87
2017-09-25T02:58:00.693Z,31.33
2017-09-25T03:00:28.246Z,31.17
2017-09-25T03:02:55.803Z,32.73
2017-09-25T03:05:23.363Z,31.20
2017-09-25T03:07:51.126Z,29.63
2017-09-25T03:10:18.686Z,31.03
2017-09-25T03:12:46.242Z,29.90
2017-09-25T03:15:13.797Z,30.10
2017-09-25T03:17:41.355Z,31.17
2017-09-25T03:20:08.934Z,29.57
2017-09-25T03:22:37.266Z,29.43
2017-09-25T03:25:04.857Z,29.50
2017-09-25T03:27:32.417Z,29.80
2017-09-25T03:29:59.970Z,30.10
2017-09-25T03:32:27.555Z,30.00
2017-09-25T03:34:55.883Z,30.23
2017-09-25T03:37:23.446Z,29.13
2017-09-25T03:39:50.997Z,29.70
2017-09-25T03:42:18.555Z,29.00
2017-09-25T03:44:46.146Z,29.77
2017-09-25T03:47:13.705Z,29.60
2017-09-25T03:49:41.257Z,32.53
2017-09-25T03:52:08.814Z,44.63
2017-09-25T03:54:36.374Z,42.37
2017-09-25T03:57:04.345Z,32.30
2017-09-25T03:59:31.902Z,33.30
2017-09-25T04:01:59.458Z,35.00
2017-09-25T04:04:27.018Z,32.57
2017-09-25T04:06:54.575Z,32.67
2017-09-25T04:09:22.153Z,32.10
2017-09-25T04:11:51.218Z,32.63
2017-09-25T04:14:18.769Z,29.40
2017-09-25T04:16:46.325Z,29.20
2017-09-25T04:19:13.892Z,30.93
2017-09-25T04:21:41.469Z,30.87
2017-09-25T04:24:09.026Z,31.23
2017-09-25T04:26:36.585Z,30.83
2017-09-25T04:29:07.213Z,30.87
2017-09-25T04:31:35.673Z,29.47
2017-09-25T04:34:03.265Z,31.20
2017-09-25T04:36:30.821Z,33.57
2017-09-25T04:38:58.374Z,32.23
2017-09-25T04:41:25.931Z,31.80
2017-09-25T04:43:53.486Z,32.77
2017-09-25T04:46:21.085Z,32.00
2017-09-25T04:48:49.404Z,32.57
2017-09-25T04:51:16.962Z,32.10
2017-09-25T04:53:44.561Z,31.53
2017-09-25T04:56:12.142Z,36.23
2017-09-25T04:58:40.490Z,33.87
2017-09-25T05:01:08.053Z,33.80
2017-09-25T05:03:35.613Z,33.53
2017-09-25T05:06:03.162Z,32.87
2017-09-25T05:08:30.714Z,33.10
2017-09-25T05:10:58.313Z,33.67
2017-09-25T05:13:26.634Z,35.33
2017-09-25T05:15:54.189Z,33.83
2017-09-25T05:18:21.747Z,37.47
2017-09-25T05:20:49.314Z,34.57
2017-09-25T05:23:16.893Z,33.47
2017-09-25T05:25:44.527Z,31.77
2017-09-25T05:28:12.083Z,32.30
2017-09-25T05:30:39.644Z,32.20
2017-09-25T05:33:07.203Z,32.73
2017-09-25T05:35:34.897Z,30.00
2017-09-25T05:38:02.492Z,30.87
2017-09-25T05:40:30.805Z,30.20
2017-09-25T05:42:58.366Z,28.97
2017-09-25T05:45:26.182Z,30.43
2017-09-25T05:47:54.721Z,28.67
2017-09-25T05:50:22.537Z,28.83
2017-09-25T05:52:51.117Z,28.47
2017-09-25T05:55:19.578Z,30.07
2017-09-25T05:57:47.134Z,30.57
2017-09-25T06:00:14.999Z,32.57
2017-09-25T06:02:43.090Z,34.27
2017-09-25T06:05:11.681Z,32.43
2017-09-25T06:07:40.266Z,32.67
2017-09-25T06:10:09.112Z,33.37
2017-09-25T06:12:36.846Z,33.17
2017-09-25T06:15:04.410Z,33.20
2017-09-25T06:17:32.162Z,31.97
2017-09-25T06:20:00.274Z,33.53
2017-09-25T06:22:27.838Z,34.00
2017-09-25T06:25:02.017Z,34.10
2017-09-25T06:27:30.698Z,35.57
2017-09-25T06:29:58.256Z,36.23
2017-09-25T06:32:25.860Z,36.67
2017-09-25T06:34:53.447Z,36.03
2017-09-25T06:37:21.869Z,37.30
2017-09-25T06:39:49.695Z,39.03
2017-09-25T06:42:18.042Z,40.43
2017-09-25T06:44:45.867Z,37.83
2017-09-25T06:47:13.675Z,39.23
2017-09-25T06:49:41.482Z,40.37
2017-09-25T06:52:09.396Z,42.10
2017-09-25T06:54:37.062Z,43.07
2017-09-25T06:57:05.386Z,42.50
2017-09-25T06:59:33.017Z,41.23
2017-09-25T07:02:01.346Z,47.53
2017-09-25T07:04:28.906Z,45.77
2017-09-25T07:06:56.500Z,45.37
2017-09-25T07:09:24.153Z,43.83
2017-09-25T07:11:51.709Z,44.07
2017-09-25T07:14:19.269Z,43.30
2017-09-25T07:16:46.826Z,42.80
2017-09-25T07:19:14.409Z,42.37
2017-09-25T07:21:42.766Z,42.67
2017-09-25T07:24:10.319Z,45.80
2017-09-25T07:26:37.869Z,43.70
2017-09-25T07:29:05.440Z,43.50
2017-09-25T07:31:33.029Z,42.10
2017-09-25T07:34:01.350Z,42.43
2017-09-25T07:36:28.909Z,37.53
2017-09-25T07:38:56.470Z,41.57
2017-09-25T07:41:24.022Z,36.87
2017-09-25T07:43:51.602Z,36.47
2017-09-25T07:46:19.274Z,37.23
2017-09-25T07:48:46.830Z,40.70
2017-09-25T07:51:14.388Z,38.13
2017-09-25T07:53:41.947Z,37.30
2017-09-25T07:56:09.553Z,36.50
2017-09-25T07:58:37.118Z,36.40
2017-09-25T08:01:04.674Z,35.90
2017-09-25T08:03:32.234Z,34.30
2017-09-25T08:05:59.811Z,33.23
2017-09-25T08:08:27.605Z,33.40
2017-09-25T08:10:55.186Z,31.33
2017-09-25T08:13:22.742Z,29.20
2017-09-25T08:15:50.294Z,27.70
2017-09-25T08:18:17.847Z,28.30
2017-09-25T08:20:45.421Z,26.00
2017-09-25T08:23:12.978Z,26.00
2017-09-25T08:25:40.540Z,24.60
2017-09-25T08:28:08.093Z,26.47
2017-09-25T08:30:35.667Z,24.83
2017-09-25T08:33:04.018Z,26.37
2017-09-25T08:35:31.574Z,25.43
2017-09-25T08:37:59.129Z,26.13
2017-09-25T08:40:26.685Z,25.57
2017-09-25T08:42:54.245Z,26.73
2017-09-25T08:45:21.822Z,39.20
2017-09-25T08:47:49.382Z,27.93
2017-09-25T08:50:16.934Z,27.10
2017-09-25T08:52:45.254Z,26.50
2017-09-25T08:55:12.806Z,27.63
2017-09-25T08:57:40.394Z,27.00
2017-09-25T09:00:07.952Z,35.07
2017-09-25T09:02:35.512Z,28.53
2017-09-25T09:05:03.074Z,27.90
2017-09-25T09:07:30.637Z,27.33
2017-09-25T09:09:58.239Z,28.43
2017-09-25T09:12:26.567Z,26.40
2017-09-25T09:14:54.131Z,26.00
2017-09-25T09:17:21.698Z,25.07
2017-09-25T09:19:49.258Z,26.83
2017-09-25T09:22:16.846Z,25.57
2017-09-25T09:24:44.408Z,24.30
2017-09-25T09:27:11.969Z,23.37
2017-09-25T09:29:39.522Z,23.37
2017-09-25T09:32:07.078Z,24.93
2017-09-25T09:34:34.658Z,24.47
2017-09-25T09:37:02.989Z,24.50
2017-09-25T09:39:30.550Z,23.00
2017-09-25T09:41:58.105Z,23.47
2017-09-25T09:44:25.659Z,24.00
2017-09-25T09:46:53.252Z,23.00
2017-09-25T09:49:20.810Z,25.13
2017-09-25T09:51:48.371Z,24.03
2017-09-25T09:54:15.934Z,23.30
2017-09-25T09:56:43.609Z,22.67
2017-09-25T09:59:11.954Z,22.87
2017-09-25T10:01:39.505Z,22.57
2017-09-25T10:04:07.063Z,22.17
2017-09-25T10:06:34.618Z,22.70
2017-09-25T10:09:02.195Z,22.40
2017-09-25T10:11:30.571Z,21.70
2017-09-25T10:13:58.122Z,21.77
2017-09-25T10:16:25.675Z,21.73
2017-09-25T10:18:53.234Z,21.40
2017-09-25T10:21:20.908Z,22.73
2017-09-25T10:23:48.511Z,22.23
2017-09-25T10:26:16.066Z,22.83
2017-09-25T10:28:44.386Z,22.50
2017-09-25T10:31:11.939Z,21.93
2017-09-25T10:33:39.508Z,22.00
2017-09-25T10:36:07.090Z,21.87
2017-09-25T10:38:34.649Z,21.40
2017-09-25T10:41:02.206Z,21.93
2017-09-25T10:43:29.777Z,22.70
2017-09-25T10:45:57.331Z,21.60
2017-09-25T10:48:24.917Z,21.63
2017-09-25T10:50:53.244Z,22.17
2017-09-25T10:53:20.802Z,22.90
2017-09-25T10:55:48.363Z,21.07
2017-09-25T10:58:15.917Z,20.53
2017-09-25T11:00:43.499Z,21.10
2017-09-25T11:03:11.050Z,20.10
2017-09-25T11:05:38.610Z,20.67
2017-09-25T11:08:06.170Z,20.67
2017-09-25T11:10:33.730Z,21.20
2017-09-25T11:13:01.306Z,20.53
2017-09-25T11:15:29.638Z,20.27
2017-09-25T11:17:57.230Z,20.30
2017-09-25T11:20:26.294Z,19.90
2017-09-25T11:22:53.852Z,20.87
2017-09-25T11:25:21.454Z,19.60
2017-09-25T11:27:49.019Z,21.13
2017-09-25T11:30:17.344Z,20.50
2017-09-25T11:32:44.903Z,19.35
2017-09-25T11:35:12.458Z,20.37
2017-09-25T11:37:40.015Z,22.97
2017-09-25T11:40:07.569Z,20.20
2017-09-25T11:42:35.126Z,21.40
2017-09-25T11:45:02.683Z,22.90
2017-09-25T11:47:30.249Z,21.10
2017-09-25T11:49:57.821Z,21.10
2017-09-25T11:52:25.379Z,21.43
2017-09-25T11:54:52.938Z,21.27
2017-09-25T11:57:20.491Z,21.03
2017-09-25T11:59:48.087Z,21.87
2017-09-25T12:02:15.642Z,21.67
2017-09-25T12:04:43.198Z,22.30
2017-09-25T12:07:10.822Z,23.00
2017-09-25T12:09:38.382Z,22.63
2017-09-25T12:12:05.942Z,23.40
2017-09-25T12:14:33.530Z,23.37
2017-09-25T12:17:01.095Z,23.10
2017-09-25T12:19:28.650Z,24.13
2017-09-25T12:21:56.217Z,25.23
2017-09-25T12:24:23.774Z,24.57
2017-09-25T12:26:51.367Z,25.40
2017-09-25T12:29:19.690Z,25.00
2017-09-25T12:31:47.250Z,25.80
2017-09-25T12:34:14.798Z,25.33
2017-09-25T12:36:42.352Z,26.13
2017-09-25T12:39:09.942Z,26.37
2017-09-25T12:41:37.498Z,24.80
2017-09-25T12:44:05.062Z,25.03
2017-09-25T12:46:32.618Z,26.43
2017-09-25T12:49:00.191Z,24.90
2017-09-25T12:51:27.773Z,24.50
2017-09-25T12:53:56.102Z,24.60
2017-09-25T12:56:23.659Z,24.17
2017-09-25T12:58:51.214Z,24.57
2017-09-25T13:01:18.780Z,23.90
2017-09-25T13:03:46.372Z,24.60
2017-09-25T13:06:13.930Z,25.07
2017-09-25T13:08:41.491Z,24.93
2017-09-25T13:11:09.050Z,24.90
2017-09-25T13:13:36.642Z,25.70
2017-09-25T13:16:04.226Z,27.90
2017-09-25T13:18:31.785Z,26.60
2017-09-25T13:20:59.344Z,25.90
2017-09-25T13:23:26.906Z,25.37
2017-09-25T13:25:54.462Z,25.37
2017-09-25T13:28:22.041Z,25.17
2017-09-25T13:30:49.598Z,24.90
2017-09-25T13:33:17.878Z,27.17
2017-09-25T13:35:45.519Z,25.70
2017-09-25T13:38:13.159Z,26.10
2017-09-25T13:40:42.342Z,27.30
2017-09-25T13:43:10.670Z,26.20
2017-09-25T13:45:38.242Z,24.90
2017-09-25T13:48:05.810Z,25.67
2017-09-25T13:50:33.524Z,27.43
2017-09-25T13:53:01.130Z,26.60
2017-09-25T13:55:28.691Z,27.33
2017-09-25T13:57:57.103Z,27.73
2017-09-25T14:02:58.407Z,28.50
2017-09-25T14:05:26.040Z,44.10
2017-09-25T14:07:53.595Z,36.30
2017-09-25T14:10:21.187Z,30.73
2017-09-25T14:12:48.749Z,31.17
2017-09-25T14:15:16.304Z,29.70
2017-09-25T14:17:43.862Z,33.00
2017-09-25T14:20:11.424Z,27.90
2017-09-25T14:22:39.011Z,30.00
2017-09-25T14:25:06.670Z,29.13
2017-09-25T14:27:34.238Z,28.57
2017-09-25T14:30:01.799Z,30.53
2017-09-25T14:32:30.126Z,41.17
2017-09-25T14:34:57.711Z,36.47
2017-09-25T14:37:25.265Z,31.87
2017-09-25T14:39:52.821Z,28.33
2017-09-25T14:42:20.382Z,29.17
2017-09-25T14:44:47.944Z,31.77
2017-09-25T14:47:15.526Z,32.37
2017-09-25T14:49:43.858Z,31.83
2017-09-25T14:52:11.417Z,31.97
2017-09-25T14:54:38.981Z,30.40
2017-09-25T14:57:06.555Z,31.47
2017-09-25T14:59:34.155Z,34.30
2017-09-25T15:02:02.482Z,31.70
2017-09-25T15:04:30.038Z,32.67
2017-09-25T15:06:57.610Z,34.67
2017-09-25T15:09:25.167Z,34.90
2017-09-25T15:11:52.759Z,35.33
2017-09-25T15:14:21.091Z,36.70
2017-09-25T15:16:48.650Z,36.47
2017-09-25T15:19:17.460Z,38.97
2017-09-25T15:21:45.039Z,40.17
2017-09-25T15:24:13.403Z,44.77
2017-09-25T15:26:41.031Z,51.20
2017-09-25T15:29:08.613Z,38.83
2017-09-25T15:31:36.201Z,37.53
2017-09-25T15:34:04.535Z,38.17
2017-09-25T15:36:32.185Z,42.37
2017-09-25T15:38:59.741Z,44.07
2017-09-25T15:41:27.300Z,35.63
2017-09-25T15:43:54.860Z,35.73
2017-09-25T15:46:22.414Z,37.20
2017-09-25T15:48:49.996Z,34.80
2017-09-25T15:51:17.553Z,35.60
2017-09-25T15:53:45.110Z,33.27
2017-09-25T15:56:12.675Z,34.67
2017-09-25T15:58:40.235Z,34.60
2017-09-25T16:01:07.826Z,35.40
2017-09-25T16:03:35.386Z,36.47
2017-09-25T16:06:02.950Z,35.07
2017-09-25T16:08:31.275Z,37.53
2017-09-25T16:10:58.829Z,39.43
2017-09-25T16:13:26.415Z,38.83
2017-09-25T16:15:53.969Z,40.10
2017-09-25T16:18:21.587Z,41.00
2017-09-25T16:20:49.175Z,39.50
2017-09-25T16:23:16.830Z,38.70
2017-09-25T16:25:44.413Z,39.60
2017-09-25T16:28:11.984Z,39.93
2017-09-25T16:30:39.598Z,40.97
2017-09-25T16:33:07.177Z,39.87
2017-09-25T16:35:34.735Z,41.13
2017-09-25T16:38:02.320Z,52.40
2017-09-25T16:40:29.877Z,43.40
2017-09-25T16:42:57.433Z,42.13
2017-09-25T16:45:24.995Z,41.70
2017-09-25T16:47:52.559Z,40.20
2017-09-25T16:50:20.912Z,38.47
2017-09-25T16:52:48.462Z,39.07
2017-09-25T16:55:16.053Z,40.33
2017-09-25T16:57:43.613Z,40.10
2017-09-25T17:00:11.175Z,39.83
2017-09-25T17:02:38.831Z,39.97
2017-09-25T17:05:06.395Z,38.87
2017-09-25T17:07:33.954Z,39.63
2017-09-25T17:10:01.603Z,40.03
2017-09-25T17:12:29.166Z,38.73
2017-09-25T17:14:56.749Z,41.90
2017-09-25T17:17:25.074Z,42.30
2017-09-25T17:19:52.632Z,44.07
2017-09-25T17:22:20.194Z,41.40
2017-09-25T17:24:47.750Z,42.63
2017-09-25T17:27:15.335Z,42.80
2017-09-25T17:29:42.894Z,42.53
2017-09-25T17:32:10.451Z,42.10
2017-09-25T17:34:38.018Z,43.17
2017-09-25T17:37:05.575Z,41.53
2017-09-25T17:39:33.166Z,42.83
2017-09-25T17:42:01.507Z,44.47
2017-09-25T17:44:29.075Z,43.73
2017-09-25T17:46:56.635Z,43.60
2017-09-25T17:49:24.189Z,43.90
2017-09-25T17:51:51.770Z,44.90
2017-09-25T17:54:20.094Z,46.13
2017-09-25T17:56:47.651Z,46.83
2017-09-25T17:59:15.213Z,47.27
2017-09-25T18:01:42.778Z,49.40
2017-09-25T18:04:10.358Z,49.83
2017-09-25T18:06:38.149Z,48.30
2017-09-25T18:09:06.533Z,47.23
2017-09-25T18:11:34.866Z,49.13
2017-09-25T18:14:02.579Z,51.37
2017-09-25T18:16:31.182Z,54.53
2017-09-25T18:18:59.223Z,56.40
2017-09-25T18:21:27.558Z,52.10
2017-09-25T18:23:55.390Z,52.17
2017-09-25T18:26:23.362Z,52.50
2017-09-25T18:28:51.330Z,58.13
2017-09-25T18:31:18.896Z,54.80
2017-09-25T18:33:49.986Z,53.20
2017-09-25T18:36:17.820Z,53.53
2017-09-25T18:38:45.582Z,56.67
2017-09-25T18:41:13.502Z,56.07
2017-09-25T18:43:42.266Z,53.47
2017-09-25T18:46:10.642Z,57.37
2017-09-25T18:48:38.496Z,57.80
2017-09-25T18:51:06.075Z,60.77
2017-09-25T18:53:33.791Z,57.03
2017-09-25T18:56:01.348Z,67.07
2017-09-25T18:58:29.040Z,59.57
2017-09-25T19:00:57.597Z,59.70
2017-09-25T19:03:26.082Z,55.50
2017-09-25T19:05:54.063Z,53.87
2017-09-25T19:08:21.749Z,50.93
2017-09-25T19:10:49.335Z,46.27
2017-09-25T19:13:17.667Z,44.83
2017-09-25T19:15:51.329Z,43.60
2017-09-25T19:18:19.228Z,42.53
2017-09-25T19:20:47.034Z,46.03
2017-09-25T19:23:15.646Z,39.97
2017-09-25T19:25:43.386Z,39.60
2017-09-25T19:28:12.016Z,40.57
2017-09-25T19:30:39.869Z,52.37
2017-09-25T19:33:07.726Z,38.60
2017-09-25T19:35:35.679Z,37.00
2017-09-25T19:38:03.980Z,36.27
2017-09-25T19:40:31.535Z,36.43
2017-09-25T19:42:59.123Z,36.13
2017-09-25T19:45:26.700Z,34.33
2017-09-25T19:47:55.082Z,36.50
2017-09-25T19:50:34.474Z,36.03
2017-09-25T19:53:02.785Z,37.43
2017-09-25T19:55:30.346Z,36.20
2017-09-25T19:58:10.414Z,35.63
2017-09-25T20:00:38.762Z,35.03
2017-09-25T20:03:06.326Z,34.33
2017-09-25T20:05:34.224Z,33.23
2017-09-25T20:08:02.558Z,34.93
2017-09-25T20:10:30.913Z,35.33
2017-09-25T20:12:59.501Z,34.70
2017-09-25T20:15:32.948Z,34.20
2017-09-25T20:18:04.879Z,33.67
2017-09-25T20:20:32.700Z,34.03
2017-09-25T20:23:00.260Z,32.87
2017-09-25T20:25:27.819Z,35.17
2017-09-25T20:27:55.377Z,32.53
2017-09-25T20:30:22.967Z,32.03
2017-09-25T20:32:50.517Z,31.57
2017-09-25T20:35:18.076Z,31.53
2017-09-25T20:37:45.642Z,32.83
2017-09-25T20:40:13.210Z,32.70
2017-09-25T20:42:46.447Z,31.00
2017-09-25T20:45:14.774Z,31.97
2017-09-25T20:47:42.349Z,30.60
2017-09-25T20:50:09.902Z,30.97
2017-09-25T20:52:37.462Z,31.10
2017-09-25T20:55:05.026Z,29.37
2017-09-25T20:57:32.586Z,31.03
2017-09-25T21:00:00.172Z,29.30
2017-09-25T21:02:28.502Z,28.47
2017-09-25T21:04:56.063Z,28.07
2017-09-25T21:07:23.634Z,27.63
2017-09-25T21:09:51.214Z,29.40
2017-09-25T21:12:18.823Z,30.67
2017-09-25T21:14:46.379Z,33.33
2017-09-25T21:17:13.930Z,31.77
2017-09-25T21:19:41.494Z,30.23
2017-09-25T21:22:09.057Z,29.70
2017-09-25T21:24:36.637Z,28.67
2017-09-25T21:27:04.614Z,31.10
2017-09-25T21:29:32.170Z,29.53
2017-09-25T21:31:59.791Z,29.80
2017-09-25T21:34:27.362Z,30.23
2017-09-25T21:36:54.956Z,28.47
2017-09-25T21:39:22.514Z,30.67
2017-09-25T21:41:50.075Z,31.97
2017-09-25T21:44:17.639Z,31.40
2017-09-25T21:46:45.201Z,32.00
2017-09-25T21:49:12.787Z,33.00
2017-09-25T21:51:41.113Z,32.00
2017-09-25T21:54:08.670Z,33.23
2017-09-25T21:56:36.254Z,32.53
2017-09-25T21:59:03.810Z,32.63
2017-09-25T22:01:31.402Z,34.60
2017-09-25T22:03:59.771Z,33.53
2017-09-25T22:06:28.097Z,32.17
2017-09-25T22:08:55.653Z,31.20
2017-09-25T22:11:23.213Z,31.63
2017-09-25T22:13:50.794Z,31.17
2017-09-25T22:16:18.350Z,29.60
2017-09-25T22:18:45.906Z,30.37
2017-09-25T22:21:13.466Z,30.80
2017-09-25T22:23:41.113Z,30.20
2017-09-25T22:26:08.701Z,31.10
2017-09-25T22:28:36.262Z,30.57
2017-09-25T22:31:03.827Z,32.13
2017-09-25T22:33:32.161Z,31.30
2017-09-25T22:35:59.761Z,32.50
2017-09-25T22:38:27.341Z,32.90
2017-09-25T22:40:55.665Z,31.40
2017-09-25T22:43:42.014Z,32.00
2017-09-25T22:46:10.336Z,32.57
2017-09-25T22:48:37.907Z,34.00
2017-09-25T22:51:05.464Z,33.13
2017-09-25T22:53:33.026Z,33.20
2017-09-25T22:56:00.610Z,32.33
2017-09-25T22:58:28.165Z,32.60
2017-09-25T23:00:55.718Z,31.43
2017-09-25T23:03:25.870Z,33.30
2017-09-25T23:05:56.108Z,31.60
2017-09-25T23:08:23.669Z,33.37
2017-09-25T23:10:51.221Z,32.80
2017-09-25T23:13:18.774Z,34.50
2017-09-25T23:15:47.094Z,34.53
2017-09-25T23:18:14.677Z,32.73
2017-09-25T23:20:42.233Z,33.77
2017-09-25T23:23:09.793Z,34.27
2017-09-25T23:25:37.350Z,34.33
2017-09-25T23:28:04.902Z,32.77
2017-09-25T23:30:34.298Z,34.40
2017-09-25T23:33:01.870Z,36.30
2017-09-25T23:35:29.425Z,36.37
2017-09-25T23:37:56.977Z,35.17
2017-09-25T23:40:24.529Z,37.67
2017-09-25T23:42:52.105Z,35.33
2017-09-25T23:45:19.657Z,36.87
2017-09-25T23:47:47.209Z,36.07
2017-09-25T23:50:14.758Z,36.90
2017-09-25T23:52:42.312Z,36.83
2017-09-25T23:55:09.885Z,36.33
2017-09-25T23:57:37.433Z,37.03
